createdAt,value
2017-09-15T00:00:40.831Z,8.40
2017-09-15T00:03:07.459Z,9.40
2017-09-15T00:05:34.073Z,9.33
2017-09-15T00:08:00.700Z,10.10
2017-09-15T00:10:27.314Z,9.20
2017-09-15T00:12:53.942Z,9.20
2017-09-15T00:15:20.598Z,11.40
2017-09-15T00:17:47.220Z,11.30
2017-09-15T00:20:13.867Z,11.27
2017-09-15T00:22:40.495Z,11.37
2017-09-15T00:25:07.119Z,10.40
2017-09-15T00:27:33.775Z,10.77
2017-09-15T00:30:00.407Z,9.83
2017-09-15T00:32:27.054Z,11.20
2017-09-15T00:34:53.678Z,10.90
2017-09-15T00:37:20.339Z,10.80
2017-09-15T00:39:46.948Z,9.00
2017-09-15T00:42:13.546Z,8.70
2017-09-15T00:44:40.199Z,9.10
2017-09-15T00:47:06.799Z,7.33
2017-09-15T00:49:33.420Z,8.63
2017-09-15T00:52:00.040Z,8.00
2017-09-15T00:54:26.668Z,7.60
2017-09-15T00:56:53.270Z,8.00
2017-09-15T00:59:19.909Z,9.03
2017-09-15T01:01:46.514Z,6.97
2017-09-15T01:04:13.139Z,8.73
2017-09-15T01:06:39.772Z,6.70
2017-09-15T01:09:06.409Z,8.50
2017-09-15T01:11:33.036Z,7.90
2017-09-15T01:13:59.675Z,7.07
2017-09-15T01:16:26.328Z,7.10
2017-09-15T01:18:52.935Z,7.93
2017-09-15T01:21:19.564Z,8.00
2017-09-15T01:23:46.176Z,7.47
2017-09-15T01:26:12.805Z,7.77
2017-09-15T01:28:39.418Z,8.93
2017-09-15T01:31:06.069Z,8.37
2017-09-15T01:33:33.076Z,9.00
2017-09-15T01:35:59.689Z,8.10
2017-09-15T01:38:26.309Z,6.43
2017-09-15T01:40:52.943Z,8.17
2017-09-15T01:43:19.597Z,8.33
2017-09-15T01:45:46.213Z,8.93
2017-09-15T01:48:12.833Z,8.90
2017-09-15T01:50:39.510Z,9.73
2017-09-15T01:53:06.123Z,9.00
2017-09-15T01:55:32.747Z,8.30
2017-09-15T01:57:59.378Z,7.87
2017-09-15T02:00:26.002Z,8.33
2017-09-15T02:02:52.623Z,8.73
2017-09-15T02:05:19.245Z,8.10
2017-09-15T02:07:45.875Z,9.93
2017-09-15T02:10:12.487Z,9.60
2017-09-15T02:12:39.136Z,9.83
2017-09-15T02:15:05.738Z,9.23
2017-09-15T02:17:32.374Z,9.27
2017-09-15T02:19:58.988Z,8.80
2017-09-15T02:22:25.632Z,9.00
2017-09-15T02:24:52.254Z,9.33
2017-09-15T02:27:18.910Z,9.40
2017-09-15T02:29:45.528Z,10.90
2017-09-15T02:32:12.190Z,10.40
2017-09-15T02:34:38.835Z,10.83
2017-09-15T02:37:05.507Z,11.37
2017-09-15T02:39:32.121Z,12.07
2017-09-15T02:41:58.750Z,12.17
2017-09-15T02:44:25.380Z,13.10
2017-09-15T02:46:52.006Z,12.57
2017-09-15T02:49:18.657Z,12.97
2017-09-15T02:51:45.283Z,12.73
2017-09-15T02:54:11.926Z,11.70
2017-09-15T02:56:38.555Z,13.33
2017-09-15T02:59:05.162Z,13.80
2017-09-15T03:01:31.814Z,15.80
2017-09-15T03:03:58.426Z,15.30
2017-09-15T03:06:25.078Z,13.60
2017-09-15T03:08:51.712Z,14.90
2017-09-15T03:11:18.354Z,16.57
2017-09-15T03:13:44.987Z,15.13
2017-09-15T03:16:11.612Z,15.60
2017-09-15T03:18:38.243Z,15.53
2017-09-15T03:21:04.854Z,16.07
2017-09-15T03:23:31.471Z,16.93
2017-09-15T03:25:58.125Z,14.13
2017-09-15T03:28:24.760Z,15.03
2017-09-15T03:30:51.424Z,15.47
2017-09-15T03:33:18.034Z,13.33
2017-09-15T03:35:44.684Z,15.67
2017-09-15T03:38:11.331Z,14.57
2017-09-15T03:40:37.985Z,15.07
2017-09-15T03:43:04.605Z,15.80
2017-09-15T03:45:31.247Z,15.20
2017-09-15T03:47:57.860Z,15.47
2017-09-15T03:50:24.498Z,13.63
2017-09-15T03:52:51.130Z,15.13
2017-09-15T03:55:17.767Z,15.10
2017-09-15T03:57:44.394Z,12.27
2017-09-15T04:00:11.014Z,14.63
2017-09-15T04:02:37.635Z,13.07
2017-09-15T04:05:04.277Z,14.97
2017-09-15T04:07:30.885Z,14.43
2017-09-15T04:09:57.516Z,13.37
2017-09-15T04:12:24.135Z,12.47
2017-09-15T04:14:50.767Z,12.20
2017-09-15T04:17:17.418Z,13.93
2017-09-15T04:19:44.063Z,12.30
2017-09-15T04:22:10.712Z,11.83
2017-09-15T04:24:37.331Z,12.53
2017-09-15T04:27:03.964Z,11.30
2017-09-15T04:29:30.611Z,10.53
2017-09-15T04:31:57.279Z,10.97
2017-09-15T04:34:23.887Z,9.70
2017-09-15T04:36:50.531Z,10.33
2017-09-15T04:39:17.163Z,10.33
2017-09-15T04:41:43.774Z,10.87
2017-09-15T04:44:10.431Z,11.23
2017-09-15T04:46:37.058Z,10.60
2017-09-15T04:49:03.672Z,10.27
2017-09-15T04:51:30.300Z,9.23
2017-09-15T04:53:56.931Z,9.30
2017-09-15T04:56:23.564Z,10.20
2017-09-15T04:58:50.184Z,10.30
2017-09-15T05:01:16.836Z,8.60
2017-09-15T05:03:43.442Z,9.73
2017-09-15T05:06:10.071Z,8.90
2017-09-15T05:08:36.703Z,10.33
2017-09-15T05:11:03.331Z,8.50
2017-09-15T05:13:29.951Z,9.00
2017-09-15T05:15:56.579Z,7.60
2017-09-15T05:18:23.228Z,9.63
2017-09-15T05:20:49.886Z,10.37
2017-09-15T05:23:16.515Z,8.53
2017-09-15T05:25:43.133Z,7.77
2017-09-15T05:28:09.754Z,8.30
2017-09-15T05:30:36.364Z,6.57
2017-09-15T05:33:02.997Z,6.53
2017-09-15T05:35:29.614Z,6.07
2017-09-15T05:37:56.236Z,6.73
2017-09-15T05:40:22.920Z,6.30
2017-09-15T05:42:49.527Z,7.80
2017-09-15T05:45:16.160Z,6.27
2017-09-15T05:47:42.777Z,6.77
2017-09-15T05:50:09.380Z,7.43
2017-09-15T05:52:36.026Z,8.70
2017-09-15T05:55:02.650Z,8.00
2017-09-15T05:57:29.294Z,8.37
2017-09-15T05:59:55.912Z,9.10
2017-09-15T06:02:22.545Z,9.63
2017-09-15T06:04:49.189Z,10.23
2017-09-15T06:07:15.823Z,9.73
2017-09-15T06:09:42.467Z,11.87
2017-09-15T06:12:09.082Z,10.40
2017-09-15T06:14:35.712Z,9.47
2017-09-15T06:17:02.368Z,10.03
2017-09-15T06:19:28.979Z,7.70
2017-09-15T06:21:55.624Z,11.20
2017-09-15T06:24:22.271Z,8.40
2017-09-15T06:26:48.890Z,9.10
2017-09-15T06:29:15.514Z,8.83
2017-09-15T06:31:42.139Z,8.20
2017-09-15T06:34:08.778Z,9.07
2017-09-15T06:36:35.406Z,8.43
2017-09-15T06:39:02.039Z,7.90
2017-09-15T06:41:28.717Z,8.33
2017-09-15T06:43:55.355Z,8.20
2017-09-15T06:46:21.987Z,7.57
2017-09-15T06:48:48.600Z,6.70
2017-09-15T06:51:15.226Z,7.83
2017-09-15T06:53:41.849Z,7.20
2017-09-15T06:56:08.469Z,7.57
2017-09-15T06:58:35.091Z,6.33
2017-09-15T07:01:01.719Z,6.40
2017-09-15T07:03:28.354Z,6.00
2017-09-15T07:05:54.971Z,5.90
2017-09-15T07:08:21.610Z,7.07
2017-09-15T07:10:48.267Z,5.20
2017-09-15T07:13:14.910Z,6.60
2017-09-15T07:15:41.528Z,6.53
2017-09-15T07:18:08.180Z,5.27
2017-09-15T07:20:34.803Z,5.23
2017-09-15T07:23:01.422Z,6.00
2017-09-15T07:25:28.058Z,5.23
2017-09-15T07:27:54.708Z,6.37
2017-09-15T07:30:22.182Z,5.30
2017-09-15T07:32:48.831Z,5.67
2017-09-15T07:35:15.452Z,7.47
2017-09-15T07:37:42.069Z,6.20
2017-09-15T07:40:08.703Z,5.03
2017-09-15T07:42:35.332Z,6.53
2017-09-15T07:45:01.960Z,6.37
2017-09-15T07:47:28.592Z,5.97
2017-09-15T07:49:55.199Z,5.57
2017-09-15T07:52:21.835Z,5.90
2017-09-15T07:54:48.462Z,5.70
2017-09-15T07:57:15.103Z,4.90
2017-09-15T07:59:41.760Z,6.30
2017-09-15T08:02:08.385Z,5.57
2017-09-15T08:04:35.002Z,4.20
2017-09-15T08:07:01.656Z,5.13
2017-09-15T08:09:28.307Z,6.07
2017-09-15T08:11:54.922Z,6.13
2017-09-15T08:14:21.547Z,5.20
2017-09-15T08:16:48.182Z,4.97
2017-09-15T08:19:14.814Z,4.20
2017-09-15T08:21:41.466Z,4.37
2017-09-15T08:24:08.067Z,5.50
2017-09-15T08:26:34.704Z,4.70
2017-09-15T08:29:01.344Z,5.40
2017-09-15T08:31:28.007Z,4.50
2017-09-15T08:33:54.640Z,3.23
2017-09-15T08:36:21.277Z,3.37
2017-09-15T08:38:47.919Z,4.10
2017-09-15T08:41:14.554Z,4.00
2017-09-15T08:43:41.162Z,5.10
2017-09-15T08:46:07.770Z,3.80
2017-09-15T08:48:34.425Z,4.33
2017-09-15T08:51:01.059Z,3.37
2017-09-15T08:53:27.683Z,4.10
2017-09-15T08:55:54.301Z,5.33
2017-09-15T08:58:20.902Z,4.10
2017-09-15T09:00:47.523Z,4.70
2017-09-15T09:03:14.195Z,4.57
2017-09-15T09:05:40.812Z,5.27
2017-09-15T09:08:07.782Z,4.87
2017-09-15T09:10:34.405Z,6.70
2017-09-15T09:13:01.036Z,4.80
2017-09-15T09:15:27.712Z,4.10
2017-09-15T09:17:54.328Z,4.77
2017-09-15T09:20:20.956Z,4.60
2017-09-15T09:22:47.562Z,4.07
2017-09-15T09:25:14.256Z,4.40
2017-09-15T09:27:40.893Z,4.40
2017-09-15T09:30:07.508Z,4.77
2017-09-15T09:32:34.134Z,3.80
2017-09-15T09:35:00.769Z,2.57
2017-09-15T09:37:27.463Z,3.23
2017-09-15T09:39:54.058Z,3.03
2017-09-15T09:42:20.731Z,3.10
2017-09-15T09:44:47.362Z,3.30
2017-09-15T09:47:13.995Z,3.20
2017-09-15T09:49:40.633Z,3.30
2017-09-15T09:52:07.267Z,2.70
2017-09-15T09:54:33.919Z,2.90
2017-09-15T09:57:00.533Z,2.53
2017-09-15T09:59:27.178Z,3.17
2017-09-15T10:01:53.788Z,2.80
2017-09-15T10:04:20.423Z,3.20
2017-09-15T10:06:47.053Z,3.10
2017-09-15T10:09:13.678Z,3.13
2017-09-15T10:11:40.310Z,3.00
2017-09-15T10:14:06.919Z,3.30
2017-09-15T10:16:33.532Z,2.87
2017-09-15T10:19:00.171Z,2.43
2017-09-15T10:21:26.813Z,2.67
2017-09-15T10:23:53.447Z,2.00
2017-09-15T10:26:20.064Z,3.50
2017-09-15T10:28:46.695Z,2.83
2017-09-15T10:31:13.373Z,2.77
2017-09-15T10:33:40.003Z,2.17
2017-09-15T10:36:06.636Z,2.70
2017-09-15T10:38:33.291Z,2.33
2017-09-15T10:40:59.919Z,2.93
2017-09-15T10:43:26.554Z,2.07
2017-09-15T10:45:53.210Z,2.20
2017-09-15T10:48:19.848Z,2.03
2017-09-15T10:50:46.482Z,2.43
2017-09-15T10:53:13.089Z,2.20
2017-09-15T10:55:39.691Z,2.80
2017-09-15T10:58:12.078Z,3.67
2017-09-15T11:00:39.112Z,2.60
2017-09-15T11:03:05.754Z,3.20
2017-09-15T11:05:32.398Z,2.27
2017-09-15T11:07:59.035Z,2.33
2017-09-15T11:10:25.682Z,3.30
2017-09-15T11:12:52.311Z,2.70
2017-09-15T11:15:18.918Z,3.70
2017-09-15T11:17:45.564Z,2.77
2017-09-15T11:20:12.190Z,3.37
2017-09-15T11:22:38.814Z,3.40
2017-09-15T11:25:05.431Z,3.43
2017-09-15T11:27:32.066Z,3.00
2017-09-15T11:29:58.670Z,3.07
2017-09-15T11:32:25.303Z,4.90
2017-09-15T11:34:51.923Z,4.80
2017-09-15T11:37:18.576Z,4.23
2017-09-15T11:39:45.206Z,4.37
2017-09-15T11:42:11.834Z,3.83
2017-09-15T11:44:38.465Z,4.93
2017-09-15T11:47:05.103Z,3.80
2017-09-15T11:49:31.734Z,4.13
2017-09-15T11:51:58.397Z,4.90
2017-09-15T11:54:25.420Z,4.43
2017-09-15T11:56:52.044Z,3.20
2017-09-15T11:59:18.681Z,3.17
2017-09-15T12:01:45.315Z,1.90
2017-09-15T12:04:11.927Z,1.37
2017-09-15T12:06:38.560Z,1.50
2017-09-15T12:09:05.192Z,3.40
2017-09-15T12:11:31.826Z,1.37
2017-09-15T12:13:58.437Z,2.20
2017-09-15T12:16:25.051Z,1.87
2017-09-15T12:18:51.710Z,1.77
2017-09-15T12:21:18.326Z,1.57
2017-09-15T12:23:44.947Z,1.40
2017-09-15T12:26:11.603Z,1.33
2017-09-15T12:28:38.238Z,1.93
2017-09-15T12:31:04.885Z,1.70
2017-09-15T12:33:31.532Z,1.67
2017-09-15T12:35:58.178Z,1.67
2017-09-15T12:38:24.799Z,1.80
2017-09-15T12:40:51.422Z,2.10
2017-09-15T12:43:18.040Z,2.43
2017-09-15T12:45:44.676Z,2.20
2017-09-15T12:48:11.308Z,2.20
2017-09-15T12:50:37.949Z,1.90
2017-09-15T12:53:04.560Z,2.60
2017-09-15T12:55:31.218Z,2.77
2017-09-15T12:57:57.846Z,1.60
2017-09-15T13:00:24.482Z,2.10
2017-09-15T13:02:51.090Z,2.40
2017-09-15T13:05:17.736Z,2.80
2017-09-15T13:07:44.404Z,2.77
2017-09-15T13:10:11.030Z,2.00
2017-09-15T13:12:37.668Z,2.37
2017-09-15T13:15:04.316Z,1.90
2017-09-15T13:17:30.943Z,2.27
2017-09-15T13:19:57.605Z,2.33
2017-09-15T13:22:24.263Z,2.23
2017-09-15T13:24:51.632Z,2.00
2017-09-15T13:27:18.247Z,2.20
2017-09-15T13:29:44.875Z,1.73
2017-09-15T13:32:11.504Z,1.97
2017-09-15T13:34:38.134Z,2.07
2017-09-15T13:37:04.788Z,1.70
2017-09-15T13:39:31.420Z,2.27
2017-09-15T13:41:58.039Z,2.30
2017-09-15T13:44:24.722Z,2.40
2017-09-15T13:46:51.351Z,1.93
2017-09-15T13:49:18.003Z,3.03
2017-09-15T13:51:44.651Z,2.93
2017-09-15T13:54:11.359Z,2.70
2017-09-15T13:56:37.980Z,3.00
2017-09-15T13:59:04.605Z,3.80
2017-09-15T14:01:31.252Z,3.03
2017-09-15T14:03:57.902Z,2.77
2017-09-15T14:06:24.538Z,3.70
2017-09-15T14:08:51.192Z,3.70
2017-09-15T14:11:17.827Z,3.40
2017-09-15T14:13:44.463Z,2.83
2017-09-15T14:16:11.107Z,3.63
2017-09-15T14:18:37.735Z,3.63
2017-09-15T14:21:04.345Z,3.67
2017-09-15T14:23:30.981Z,5.27
2017-09-15T14:25:57.625Z,7.07
2017-09-15T14:28:24.260Z,4.60
2017-09-15T14:30:50.886Z,5.70
2017-09-15T14:33:17.504Z,3.90
2017-09-15T14:35:44.205Z,3.60
2017-09-15T14:38:10.825Z,2.20
2017-09-15T14:40:37.496Z,2.20
2017-09-15T14:43:04.154Z,1.80
2017-09-15T14:45:30.794Z,2.20
2017-09-15T14:47:57.432Z,1.83
2017-09-15T14:50:24.041Z,1.93
2017-09-15T14:52:50.688Z,3.03
2017-09-15T14:55:17.348Z,3.00
2017-09-15T14:57:43.978Z,2.97
2017-09-15T15:00:10.614Z,3.40
2017-09-15T15:02:37.258Z,3.00
2017-09-15T15:05:03.893Z,3.93
2017-09-15T15:07:30.507Z,3.27
2017-09-15T15:09:57.166Z,3.30
2017-09-15T15:12:23.808Z,3.70
2017-09-15T15:14:50.457Z,2.97
2017-09-15T15:17:17.062Z,2.10
2017-09-15T15:19:43.707Z,2.93
2017-09-15T15:22:10.322Z,2.87
2017-09-15T15:24:36.992Z,2.33
2017-09-15T15:27:03.660Z,3.27
2017-09-15T15:29:30.306Z,2.90
2017-09-15T15:31:56.934Z,4.63
2017-09-15T15:34:23.609Z,4.50
2017-09-15T15:36:50.272Z,5.80
2017-09-15T15:39:16.899Z,4.70
2017-09-15T15:41:43.558Z,5.77
2017-09-15T15:44:10.208Z,5.20
2017-09-15T15:46:36.823Z,5.70
2017-09-15T15:49:03.431Z,5.50
2017-09-15T15:51:30.071Z,4.77
2017-09-15T15:53:56.674Z,5.13
2017-09-15T15:56:23.311Z,5.30
2017-09-15T15:58:49.936Z,6.20
2017-09-15T16:01:16.564Z,4.90
2017-09-15T16:03:43.224Z,6.13
2017-09-15T16:06:09.842Z,7.40
2017-09-15T16:08:36.482Z,7.13
2017-09-15T16:11:03.092Z,5.67
2017-09-15T16:13:29.746Z,6.00
2017-09-15T16:15:56.363Z,6.00
2017-09-15T16:18:23.006Z,4.80
2017-09-15T16:20:49.665Z,6.10
2017-09-15T16:23:16.279Z,6.67
2017-09-15T16:25:42.893Z,5.23
2017-09-15T16:28:09.526Z,5.70
2017-09-15T16:30:36.176Z,5.33
2017-09-15T16:33:02.827Z,5.20
2017-09-15T16:35:29.453Z,5.20
2017-09-15T16:38:01.833Z,4.90
2017-09-15T16:40:34.236Z,3.60
2017-09-15T16:43:06.756Z,4.43
2017-09-15T16:45:39.097Z,3.83
2017-09-15T16:48:11.408Z,4.70
2017-09-15T16:50:38.036Z,4.60
2017-09-15T16:53:04.670Z,3.80
2017-09-15T16:55:31.330Z,4.70
2017-09-15T16:57:58.129Z,4.77
2017-09-15T17:00:24.767Z,4.50
2017-09-15T17:02:51.406Z,5.17
2017-09-15T17:05:18.036Z,5.90
2017-09-15T17:07:44.667Z,5.20
2017-09-15T17:10:11.316Z,5.70
2017-09-15T17:12:37.928Z,5.70
2017-09-15T17:15:04.564Z,6.73
2017-09-15T17:17:31.191Z,6.50
2017-09-15T17:19:57.808Z,7.27
2017-09-15T17:22:24.467Z,6.37
2017-09-15T17:24:51.109Z,6.47
2017-09-15T17:27:17.766Z,6.70
2017-09-15T17:29:44.376Z,7.17
2017-09-15T17:32:11.018Z,7.30
2017-09-15T17:34:37.668Z,7.30
2017-09-15T17:37:04.299Z,7.30
2017-09-15T17:39:30.959Z,6.30
2017-09-15T17:41:57.587Z,6.23
2017-09-15T17:44:24.236Z,6.70
2017-09-15T17:46:50.859Z,5.23
2017-09-15T17:49:17.471Z,6.07
2017-09-15T17:51:44.111Z,5.50
2017-09-15T17:54:10.763Z,8.40
2017-09-15T17:56:37.415Z,5.83
2017-09-15T17:59:04.057Z,5.50
2017-09-15T18:01:30.668Z,5.60
2017-09-15T18:03:57.302Z,4.40
2017-09-15T18:06:23.930Z,3.80
2017-09-15T18:08:50.561Z,3.43
2017-09-15T18:11:17.215Z,3.50
2017-09-15T18:13:43.849Z,3.57
2017-09-15T18:16:10.470Z,3.67
2017-09-15T18:18:37.103Z,4.00
2017-09-15T18:21:03.748Z,4.13
2017-09-15T18:23:30.356Z,6.03
2017-09-15T18:25:57.002Z,3.93
2017-09-15T18:28:23.609Z,3.97
2017-09-15T18:30:50.279Z,3.87
2017-09-15T18:33:16.884Z,3.70
2017-09-15T18:35:43.540Z,3.87
2017-09-15T18:38:10.158Z,3.70
2017-09-15T18:40:36.804Z,3.27
2017-09-15T18:43:03.429Z,3.17
2017-09-15T18:45:30.064Z,3.80
2017-09-15T18:47:56.700Z,3.77
2017-09-15T18:53:08.930Z,3.50
2017-09-15T18:55:35.591Z,3.83
2017-09-15T18:58:02.444Z,3.80
2017-09-15T19:00:29.108Z,4.80
2017-09-15T19:02:55.751Z,3.93
2017-09-15T19:05:22.455Z,4.77
2017-09-15T19:07:49.082Z,4.37
2017-09-15T19:10:15.707Z,4.50
2017-09-15T19:12:42.352Z,4.40
2017-09-15T19:15:08.991Z,5.53
2017-09-15T19:17:35.654Z,5.67
2017-09-15T19:20:02.295Z,5.33
2017-09-15T19:22:28.990Z,5.37
2017-09-15T19:24:55.665Z,4.43
2017-09-15T19:27:22.274Z,5.63
2017-09-15T19:29:48.923Z,4.97
2017-09-15T19:32:15.548Z,5.87
2017-09-15T19:34:42.172Z,5.90
2017-09-15T19:37:08.833Z,5.30
2017-09-15T19:39:35.477Z,5.80
2017-09-15T19:42:02.091Z,5.57
2017-09-15T19:44:28.712Z,4.87
2017-09-15T19:46:55.349Z,4.77
2017-09-15T19:49:22.017Z,4.43
2017-09-15T19:51:48.687Z,4.20
2017-09-15T19:54:15.310Z,5.27
2017-09-15T19:56:41.968Z,5.57
2017-09-15T19:59:08.588Z,4.80
2017-09-15T20:01:35.209Z,5.10
2017-09-15T20:04:01.878Z,5.03
2017-09-15T20:06:28.507Z,5.10
2017-09-15T20:08:55.143Z,5.20
2017-09-15T20:11:21.800Z,5.67
2017-09-15T20:13:48.414Z,5.13
2017-09-15T20:16:15.019Z,4.40
2017-09-15T20:18:41.671Z,5.50
2017-09-15T20:21:08.347Z,5.77
2017-09-15T20:23:34.984Z,4.67
2017-09-15T20:26:01.639Z,6.37
2017-09-15T20:28:28.264Z,4.87
2017-09-15T20:30:54.924Z,5.20
2017-09-15T20:33:21.577Z,4.80
2017-09-15T20:35:48.212Z,4.27
2017-09-15T20:38:14.849Z,4.90
2017-09-15T20:40:41.475Z,4.60
2017-09-15T20:43:08.096Z,4.27
2017-09-15T20:45:34.760Z,5.33
2017-09-15T20:48:01.374Z,5.43
2017-09-15T20:50:27.998Z,4.43
2017-09-15T20:52:54.640Z,4.40
2017-09-15T20:55:22.009Z,4.80
2017-09-15T20:57:48.635Z,5.13
2017-09-15T21:00:15.299Z,4.97
2017-09-15T21:02:41.937Z,5.53
2017-09-15T21:05:08.570Z,5.60
2017-09-15T21:07:35.205Z,5.70
2017-09-15T21:10:01.854Z,5.90
2017-09-15T21:12:28.478Z,5.33
2017-09-15T21:14:55.109Z,5.70
2017-09-15T21:17:21.751Z,6.07
2017-09-15T21:19:48.392Z,6.10
2017-09-15T21:22:15.034Z,5.43
2017-09-15T21:24:41.680Z,6.63
2017-09-15T21:27:08.307Z,6.20
2017-09-15T21:29:34.941Z,6.40
2017-09-15T21:32:01.561Z,6.93
2017-09-15T21:34:28.208Z,6.10
2017-09-15T21:36:54.822Z,6.30
2017-09-15T21:39:21.467Z,5.87
2017-09-15T21:41:48.102Z,6.10
2017-09-15T21:44:14.728Z,6.40
2017-09-15T21:46:41.389Z,7.27
2017-09-15T21:49:08.007Z,6.65
2017-09-15T21:51:34.632Z,7.83
2017-09-15T21:54:01.293Z,6.57
2017-09-15T21:56:28.011Z,6.77
2017-09-15T21:58:54.663Z,7.50
2017-09-15T22:01:21.295Z,8.43
2017-09-15T22:03:53.639Z,7.60
2017-09-15T22:06:20.295Z,6.43
2017-09-15T22:08:46.975Z,5.47
2017-09-15T22:11:13.606Z,6.40
2017-09-15T22:13:40.267Z,8.23
2017-09-15T22:16:06.902Z,6.20
2017-09-15T22:18:33.566Z,6.43
2017-09-15T22:21:00.203Z,6.70
2017-09-15T22:23:26.839Z,7.70
2017-09-15T22:25:53.507Z,7.30
2017-09-15T22:28:20.128Z,6.53
2017-09-15T22:30:46.750Z,7.87
2017-09-15T22:33:13.373Z,6.83
2017-09-15T22:35:40.045Z,7.37
2017-09-15T22:38:06.665Z,7.57
2017-09-15T22:40:35.229Z,8.03
2017-09-15T22:43:01.907Z,6.72
2017-09-15T22:45:28.569Z,7.53
2017-09-15T22:47:55.219Z,10.02
2017-09-15T22:50:21.866Z,7.65
2017-09-15T22:52:48.494Z,7.20
2017-09-15T22:55:15.140Z,6.43
2017-09-15T22:57:41.789Z,7.30
2017-09-15T23:00:08.419Z,7.22
2017-09-15T23:02:35.070Z,7.35
2017-09-15T23:05:01.703Z,6.85
2017-09-15T23:07:28.349Z,5.50
2017-09-15T23:09:54.978Z,5.43
2017-09-15T23:12:21.607Z,5.57
2017-09-15T23:14:48.260Z,5.05
2017-09-15T23:17:14.861Z,6.33
2017-09-15T23:19:41.556Z,5.13
2017-09-15T23:22:08.167Z,6.37
2017-09-15T23:24:34.818Z,8.35
2017-09-15T23:27:01.467Z,8.75
2017-09-15T23:29:28.109Z,7.22
2017-09-15T23:31:54.748Z,7.87
2017-09-15T23:34:21.424Z,7.03
2017-09-15T23:36:48.069Z,4.10
2017-09-15T23:39:14.690Z,7.87
2017-09-15T23:41:41.340Z,5.25
2017-09-15T23:44:07.967Z,4.65
2017-09-15T23:46:34.599Z,5.20
2017-09-15T23:49:01.224Z,3.72
2017-09-15T23:51:27.878Z,3.30
2017-09-15T23:53:54.511Z,3.90
2017-09-15T23:56:21.142Z,6.70
2017-09-15T23:58:47.776Z,5.97
